KAFW/AFW METAR and TAF weather

Enter ICAO airport designator
Station Type Date Time Source
KAFW METAR 2018/10/16 21:18 UTC NOAA

KAFW 162118Z 36011KT 3SM -RA SCT024 BKN090 OVC110 09/07 A3024 RMK AO2 P0006 T00940067


Station Type Date Time Source
KAFW Decoded METAR 2018/10/16 21:18 UTC NOAA

FORT WORTH ALLIANCE AIRPORT, TX, United States (KAFW) 32-59N 097-19W 233M
Oct 16, 2018 - 05:18 PM EDT / 2018.10.16 2118 UTC
Wind: from the N (360 degrees) at 13 MPH (11 KT):0
Visibility: 3 mile(s):0
Sky conditions: overcast
Weather: light rain
Precipitation last hour: 0.06 inches
Temperature: 48.9 F (9.4 C)
Dew Point: 44.1 F (6.7 C)
Relative Humidity: 83%
Pressure (altimeter): 30.24 in. Hg (1024 hPa)
ob: KAFW 162118Z 36011KT 3SM -RA SCT024 BKN090 OVC110 09/07 A3024 RMK AO2 P0006 T00940067
cycle: 21

Station Type Date Time Source
KAFW TAF 2018/10/16 21:59 UTC NOAA

TAF
AMD KAFW 162059Z 1621/1718 36010KT 5SM -RA BR SCT012 OVC025
TEMPO 1621/1701 3SM RA BR
FM170400 36008KT P6SM -RA BKN030 OVC040
FM171100 36010KT 6SM -RA BR BKN021 BKN040


Example: see airport list